sensor_id;sensor_type;location;lat;lon;timestamp;temperature;humidity
4306;DHT22;2166;49.926;8.608;2023-04-05T00:00:11;1.90;75.10
4306;DHT22;2166;49.926;8.608;2023-04-05T00:03:03;1.80;75.00
4306;DHT22;2166;49.926;8.608;2023-04-05T00:05:40;1.80;75.10
4306;DHT22;2166;49.926;8.608;2023-04-05T00:08:12;1.70;75.20
4306;DHT22;2166;49.926;8.608;2023-04-05T00:11:09;1.60;75.60
4306;DHT22;2166;49.926;8.608;2023-04-05T00:13:44;1.50;75.90
4306;DHT22;2166;49.926;8.608;2023-04-05T00:16:14;1.50;76.30
4306;DHT22;2166;49.926;8.608;2023-04-05T00:18:47;1.40;76.30
4306;DHT22;2166;49.926;8.608;2023-04-05T00:21:35;1.40;76.40
4306;DHT22;2166;49.926;8.608;2023-04-05T00:24:24;1.20;76.60
4306;DHT22;2166;49.926;8.608;2023-04-05T00:27:02;1.10;76.90
4306;DHT22;2166;49.926;8.608;2023-04-05T00:29:40;1.10;77.10
4306;DHT22;2166;49.926;8.608;2023-04-05T00:32:53;1.10;77.10
4306;DHT22;2166;49.926;8.608;2023-04-05T00:35:32;1.20;76.90
4306;DHT22;2166;49.926;8.608;2023-04-05T00:38:25;1.30;76.80
4306;DHT22;2166;49.926;8.608;2023-04-05T00:41:09;1.30;76.80
4306;DHT22;2166;49.926;8.608;2023-04-05T00:43:52;1.30;76.90
4306;DHT22;2166;49.926;8.608;2023-04-05T00:46:46;1.40;76.70
4306;DHT22;2166;49.926;8.608;2023-04-05T00:49:16;1.50;76.70
4306;DHT22;2166;49.926;8.608;2023-04-05T00:51:45;1.50;76.60
4306;DHT22;2166;49.926;8.608;2023-04-05T00:54:16;1.50;76.60
4306;DHT22;2166;49.926;8.608;2023-04-05T00:56:47;1.40;76.70
4306;DHT22;2166;49.926;8.608;2023-04-05T00:59:19;1.40;76.70
4306;DHT22;2166;49.926;8.608;2023-04-05T01:01:47;1.40;76.90
4306;DHT22;2166;49.926;8.608;2023-04-05T01:04:21;1.40;76.50
4306;DHT22;2166;49.926;8.608;2023-04-05T01:06:51;1.40;76.50
4306;DHT22;2166;49.926;8.608;2023-04-05T01:09:44;1.30;76.50
4306;DHT22;2166;49.926;8.608;2023-04-05T01:12:15;1.30;76.50
4306;DHT22;2166;49.926;8.608;2023-04-05T01:14:44;1.20;76.50
4306;DHT22;2166;49.926;8.608;2023-04-05T01:17:13;1.20;76.60
4306;DHT22;2166;49.926;8.608;2023-04-05T01:19:42;1.20;76.60
4306;DHT22;2166;49.926;8.608;2023-04-05T01:28:00;0.90;76.70
4306;DHT22;2166;49.926;8.608;2023-04-05T01:30:42;0.80;76.80
4306;DHT22;2166;49.926;8.608;2023-04-05T01:33:12;0.80;76.90
4306;DHT22;2166;49.926;8.608;2023-04-05T01:35:43;0.70;76.90
4306;DHT22;2166;49.926;8.608;2023-04-05T01:38:16;0.70;77.00
4306;DHT22;2166;49.926;8.608;2023-04-05T01:40:45;0.70;77.00
4306;DHT22;2166;49.926;8.608;2023-04-05T01:43:14;0.60;77.10
4306;DHT22;2166;49.926;8.608;2023-04-05T01:45:45;0.60;77.10
4306;DHT22;2166;49.926;8.608;2023-04-05T01:48:13;0.50;77.00
4306;DHT22;2166;49.926;8.608;2023-04-05T01:50:42;0.50;77.10
4306;DHT22;2166;49.926;8.608;2023-04-05T01:53:11;0.40;77.10
4306;DHT22;2166;49.926;8.608;2023-04-05T01:55:40;0.40;77.20
4306;DHT22;2166;49.926;8.608;2023-04-05T01:58:08;0.30;77.30
4306;DHT22;2166;49.926;8.608;2023-04-05T02:00:37;0.30;77.30
4306;DHT22;2166;49.926;8.608;2023-04-05T02:03:07;0.30;77.30
4306;DHT22;2166;49.926;8.608;2023-04-05T02:05:36;0.20;77.30
4306;DHT22;2166;49.926;8.608;2023-04-05T02:08:04;0.20;77.40
4306;DHT22;2166;49.926;8.608;2023-04-05T02:10:32;0.10;77.40
4306;DHT22;2166;49.926;8.608;2023-04-05T02:13:01;0.10;77.40
4306;DHT22;2166;49.926;8.608;2023-04-05T02:15:29;0.10;77.40
4306;DHT22;2166;49.926;8.608;2023-04-05T02:18:00;0.10;77.60
4306;DHT22;2166;49.926;8.608;2023-04-05T02:20:31;0.00;77.60
4306;DHT22;2166;49.926;8.608;2023-04-05T02:23:00;0.00;77.70
4306;DHT22;2166;49.926;8.608;2023-04-05T02:25:28;-0.10;77.70
4306;DHT22;2166;49.926;8.608;2023-04-05T02:27:58;-0.10;77.70
4306;DHT22;2166;49.926;8.608;2023-04-05T02:30:26;-0.20;77.70
4306;DHT22;2166;49.926;8.608;2023-04-05T02:32:55;-0.20;77.80
4306;DHT22;2166;49.926;8.608;2023-04-05T02:35:24;-0.20;77.80
4306;DHT22;2166;49.926;8.608;2023-04-05T02:37:54;-0.30;77.70
4306;DHT22;2166;49.926;8.608;2023-04-05T02:40:22;-0.30;77.80
4306;DHT22;2166;49.926;8.608;2023-04-05T02:42:51;-0.30;77.90
4306;DHT22;2166;49.926;8.608;2023-04-05T02:45:19;-0.40;78.00
4306;DHT22;2166;49.926;8.608;2023-04-05T02:47:48;-0.40;77.90
4306;DHT22;2166;49.926;8.608;2023-04-05T02:50:16;-0.40;77.90
4306;DHT22;2166;49.926;8.608;2023-04-05T02:52:46;-0.40;77.90
4306;DHT22;2166;49.926;8.608;2023-04-05T02:55:16;-0.30;77.90
4306;DHT22;2166;49.926;8.608;2023-04-05T02:57:45;-0.30;77.90
4306;DHT22;2166;49.926;8.608;2023-04-05T03:00:27;-0.30;77.80
4306;DHT22;2166;49.926;8.608;2023-04-05T03:02:58;-0.40;77.90
4306;DHT22;2166;49.926;8.608;2023-04-05T03:05:27;-0.40;77.80
4306;DHT22;2166;49.926;8.608;2023-04-05T03:07:57;-0.40;77.90
4306;DHT22;2166;49.926;8.608;2023-04-05T03:10:30;-0.40;77.90
4306;DHT22;2166;49.926;8.608;2023-04-05T03:13:11;-0.40;77.80
4306;DHT22;2166;49.926;8.608;2023-04-05T03:15:40;-0.40;77.90
4306;DHT22;2166;49.926;8.608;2023-04-05T03:18:12;-0.40;77.90
4306;DHT22;2166;49.926;8.608;2023-04-05T03:20:42;-0.40;77.90
4306;DHT22;2166;49.926;8.608;2023-04-05T03:23:17;-0.40;77.80
4306;DHT22;2166;49.926;8.608;2023-04-05T03:25:53;-0.50;77.80
4306;DHT22;2166;49.926;8.608;2023-04-05T03:28:23;-0.50;77.90
4306;DHT22;2166;49.926;8.608;2023-04-05T03:30:55;-0.50;77.90
4306;DHT22;2166;49.926;8.608;2023-04-05T03:33:24;-0.60;78.00
4306;DHT22;2166;49.926;8.608;2023-04-05T03:35:52;-0.60;78.00
4306;DHT22;2166;49.926;8.608;2023-04-05T03:38:21;-0.60;78.00
4306;DHT22;2166;49.926;8.608;2023-04-05T03:41:06;-0.70;78.10
4306;DHT22;2166;49.926;8.608;2023-04-05T03:43:35;-0.70;78.20
4306;DHT22;2166;49.926;8.608;2023-04-05T03:46:04;-0.70;78.20
4306;DHT22;2166;49.926;8.608;2023-04-05T03:48:33;-0.80;78.20
4306;DHT22;2166;49.926;8.608;2023-04-05T03:51:01;-0.90;78.30
4306;DHT22;2166;49.926;8.608;2023-04-05T03:53:30;-0.90;78.40
4306;DHT22;2166;49.926;8.608;2023-04-05T03:55:59;-0.90;78.30
4306;DHT22;2166;49.926;8.608;2023-04-05T03:58:43;-0.90;78.50
4306;DHT22;2166;49.926;8.608;2023-04-05T04:01:13;-0.90;78.50
4306;DHT22;2166;49.926;8.608;2023-04-05T04:03:42;-0.90;78.50
4306;DHT22;2166;49.926;8.608;2023-04-05T04:06:10;-0.90;78.50
4306;DHT22;2166;49.926;8.608;2023-04-05T04:08:40;-0.90;78.50
4306;DHT22;2166;49.926;8.608;2023-04-05T04:11:08;-1.00;78.40
4306;DHT22;2166;49.926;8.608;2023-04-05T04:13:39;-1.10;78.50
4306;DHT22;2166;49.926;8.608;2023-04-05T04:16:15;-1.20;78.50
4306;DHT22;2166;49.926;8.608;2023-04-05T04:19:07;-1.30;78.60
4306;DHT22;2166;49.926;8.608;2023-04-05T04:21:44;-1.30;78.90
4306;DHT22;2166;49.926;8.608;2023-04-05T04:24:43;-1.30;79.10
4306;DHT22;2166;49.926;8.608;2023-04-05T04:27:44;-1.30;79.20
4306;DHT22;2166;49.926;8.608;2023-04-05T04:30:44;-1.30;79.10
4306;DHT22;2166;49.926;8.608;2023-04-05T04:33:37;-1.30;79.30
4306;DHT22;2166;49.926;8.608;2023-04-05T04:36:34;-1.30;79.30
4306;DHT22;2166;49.926;8.608;2023-04-05T04:39:28;-1.40;79.40
4306;DHT22;2166;49.926;8.608;2023-04-05T04:42:16;-1.30;79.30
4306;DHT22;2166;49.926;8.608;2023-04-05T04:45:07;-1.30;79.30
4306;DHT22;2166;49.926;8.608;2023-04-05T04:47:46;-1.30;79.50
4306;DHT22;2166;49.926;8.608;2023-04-05T04:50:35;-1.30;79.50
4306;DHT22;2166;49.926;8.608;2023-04-05T04:53:04;-1.30;79.70
4306;DHT22;2166;49.926;8.608;2023-04-05T04:55:33;-1.30;79.60
4306;DHT22;2166;49.926;8.608;2023-04-05T04:58:02;-1.30;79.60
4306;DHT22;2166;49.926;8.608;2023-04-05T05:00:36;-1.30;79.60
4306;DHT22;2166;49.926;8.608;2023-04-05T05:03:06;-1.30;79.70
4306;DHT22;2166;49.926;8.608;2023-04-05T05:05:42;-1.30;79.60
4306;DHT22;2166;49.926;8.608;2023-04-05T05:08:11;-1.30;79.50
4306;DHT22;2166;49.926;8.608;2023-04-05T05:10:40;-1.30;79.40
4306;DHT22;2166;49.926;8.608;2023-04-05T05:13:09;-1.20;79.50
4306;DHT22;2166;49.926;8.608;2023-04-05T05:15:38;-1.20;79.50
4306;DHT22;2166;49.926;8.608;2023-04-05T05:18:06;-1.20;79.70
4306;DHT22;2166;49.926;8.608;2023-04-05T05:20:36;-1.10;79.80
4306;DHT22;2166;49.926;8.608;2023-04-05T05:23:06;-1.00;79.80
4306;DHT22;2166;49.926;8.608;2023-04-05T05:25:34;-0.90;79.50
4306;DHT22;2166;49.926;8.608;2023-04-05T05:28:04;-0.80;79.40
4306;DHT22;2166;49.926;8.608;2023-04-05T05:30:32;-0.50;79.40
4306;DHT22;2166;49.926;8.608;2023-04-05T05:33:00;0.00;79.60
4306;DHT22;2166;49.926;8.608;2023-04-05T05:35:29;0.80;79.00
4306;DHT22;2166;49.926;8.608;2023-04-05T05:37:57;1.50;77.80
4306;DHT22;2166;49.926;8.608;2023-04-05T05:40:28;2.20;77.00
4306;DHT22;2166;49.926;8.608;2023-04-05T05:42:56;2.80;75.40
4306;DHT22;2166;49.926;8.608;2023-04-05T05:45:25;3.50;74.40
4306;DHT22;2166;49.926;8.608;2023-04-05T05:47:54;4.10;73.30
4306;DHT22;2166;49.926;8.608;2023-04-05T05:50:23;4.80;71.80
4306;DHT22;2166;49.926;8.608;2023-04-05T05:52:51;5.30;69.70
4306;DHT22;2166;49.926;8.608;2023-04-05T05:55:20;5.70;67.20
4306;DHT22;2166;49.926;8.608;2023-04-05T05:57:51;5.90;66.50
4306;DHT22;2166;49.926;8.608;2023-04-05T06:00:20;6.30;66.00
4306;DHT22;2166;49.926;8.608;2023-04-05T06:02:48;6.90;64.40
4306;DHT22;2166;49.926;8.608;2023-04-05T06:05:16;7.50;62.10
4306;DHT22;2166;49.926;8.608;2023-04-05T06:07:45;7.80;60.70
4306;DHT22;2166;49.926;8.608;2023-04-05T06:10:14;8.20;59.40
4306;DHT22;2166;49.926;8.608;2023-04-05T06:12:42;8.40;58.60
4306;DHT22;2166;49.926;8.608;2023-04-05T06:15:11;8.90;57.80
4306;DHT22;2166;49.926;8.608;2023-04-05T06:17:40;9.30;56.90
4306;DHT22;2166;49.926;8.608;2023-04-05T06:20:08;10.00;55.70
4306;DHT22;2166;49.926;8.608;2023-04-05T06:22:38;10.50;54.00
4306;DHT22;2166;49.926;8.608;2023-04-05T06:25:07;10.80;53.30
4306;DHT22;2166;49.926;8.608;2023-04-05T06:27:37;11.10;52.50
4306;DHT22;2166;49.926;8.608;2023-04-05T06:30:06;11.50;52.10
4306;DHT22;2166;49.926;8.608;2023-04-05T06:32:37;11.80;51.30
4306;DHT22;2166;49.926;8.608;2023-04-05T06:35:06;12.10;49.80
4306;DHT22;2166;49.926;8.608;2023-04-05T06:37:34;12.20;49.00
4306;DHT22;2166;49.926;8.608;2023-04-05T06:40:03;12.50;48.80
4306;DHT22;2166;49.926;8.608;2023-04-05T06:42:31;12.80;48.40
4306;DHT22;2166;49.926;8.608;2023-04-05T06:45:03;13.00;47.80
4306;DHT22;2166;49.926;8.608;2023-04-05T06:47:32;13.20;47.40
4306;DHT22;2166;49.926;8.608;2023-04-05T06:50:01;14.00;46.00
4306;DHT22;2166;49.926;8.608;2023-04-05T06:52:30;14.30;45.30
4306;DHT22;2166;49.926;8.608;2023-04-05T06:54:59;14.40;44.70
4306;DHT22;2166;49.926;8.608;2023-04-05T06:57:28;14.70;44.10
4306;DHT22;2166;49.926;8.608;2023-04-05T06:59:57;15.40;42.50
4306;DHT22;2166;49.926;8.608;2023-04-05T07:02:25;14.70;41.40
4306;DHT22;2166;49.926;8.608;2023-04-05T07:04:53;14.40;41.70
4306;DHT22;2166;49.926;8.608;2023-04-05T07:07:27;13.90;44.00
4306;DHT22;2166;49.926;8.608;2023-04-05T07:09:56;14.20;44.00
4306;DHT22;2166;49.926;8.608;2023-04-05T07:12:25;14.60;42.60
4306;DHT22;2166;49.926;8.608;2023-04-05T07:14:54;14.60;42.70
4306;DHT22;2166;49.926;8.608;2023-04-05T07:17:22;14.80;41.90
4306;DHT22;2166;49.926;8.608;2023-04-05T07:19:51;14.60;41.20
4306;DHT22;2166;49.926;8.608;2023-04-05T07:22:19;14.50;42.30
4306;DHT22;2166;49.926;8.608;2023-04-05T07:24:49;14.70;41.80
4306;DHT22;2166;49.926;8.608;2023-04-05T07:27:18;15.20;40.80
4306;DHT22;2166;49.926;8.608;2023-04-05T07:29:46;15.90;39.40
4306;DHT22;2166;49.926;8.608;2023-04-05T07:32:15;15.40;39.20
4306;DHT22;2166;49.926;8.608;2023-04-05T07:34:43;14.90;40.20
4306;DHT22;2166;49.926;8.608;2023-04-05T07:37:14;14.70;40.50
4306;DHT22;2166;49.926;8.608;2023-04-05T07:39:43;15.40;41.00
4306;DHT22;2166;49.926;8.608;2023-04-05T07:42:14;16.20;38.20
4306;DHT22;2166;49.926;8.608;2023-04-05T07:44:47;16.00;38.70
4306;DHT22;2166;49.926;8.608;2023-04-05T07:47:16;16.50;37.50
4306;DHT22;2166;49.926;8.608;2023-04-05T07:49:44;16.50;37.80
4306;DHT22;2166;49.926;8.608;2023-04-05T07:52:13;16.40;37.50
4306;DHT22;2166;49.926;8.608;2023-04-05T07:54:42;17.00;37.60
4306;DHT22;2166;49.926;8.608;2023-04-05T07:57:16;16.90;36.40
4306;DHT22;2166;49.926;8.608;2023-04-05T07:59:47;16.60;36.50
4306;DHT22;2166;49.926;8.608;2023-04-05T08:02:17;16.60;36.40
4306;DHT22;2166;49.926;8.608;2023-04-05T08:04:46;16.30;37.10
4306;DHT22;2166;49.926;8.608;2023-04-05T08:07:14;16.50;37.10
4306;DHT22;2166;49.926;8.608;2023-04-05T08:09:42;16.90;36.70
4306;DHT22;2166;49.926;8.608;2023-04-05T08:12:10;17.30;36.20
4306;DHT22;2166;49.926;8.608;2023-04-05T08:14:40;17.80;35.50
4306;DHT22;2166;49.926;8.608;2023-04-05T08:17:09;18.30;34.60
4306;DHT22;2166;49.926;8.608;2023-04-05T08:19:37;18.60;35.00
4306;DHT22;2166;49.926;8.608;2023-04-05T08:22:06;19.50;34.60
4306;DHT22;2166;49.926;8.608;2023-04-05T08:24:34;20.40;32.50
4306;DHT22;2166;49.926;8.608;2023-04-05T08:27:02;20.50;32.30
4306;DHT22;2166;49.926;8.608;2023-04-05T08:29:30;21.60;31.70
4306;DHT22;2166;49.926;8.608;2023-04-05T08:32:00;22.00;31.20
4306;DHT22;2166;49.926;8.608;2023-04-05T08:34:28;22.40;30.40
4306;DHT22;2166;49.926;8.608;2023-04-05T08:36:57;22.40;29.30
4306;DHT22;2166;49.926;8.608;2023-04-05T08:39:26;22.80;29.70
4306;DHT22;2166;49.926;8.608;2023-04-05T08:41:58;23.40;28.00
4306;DHT22;2166;49.926;8.608;2023-04-05T08:44:27;24.00;28.50
4306;DHT22;2166;49.926;8.608;2023-04-05T08:47:04;24.10;27.40
4306;DHT22;2166;49.926;8.608;2023-04-05T08:49:32;24.10;28.20
4306;DHT22;2166;49.926;8.608;2023-04-05T08:52:01;24.80;27.50
4306;DHT22;2166;49.926;8.608;2023-04-05T08:54:30;25.80;26.70
4306;DHT22;2166;49.926;8.608;2023-04-05T08:57:16;26.50;25.30
4306;DHT22;2166;49.926;8.608;2023-04-05T08:59:45;26.90;25.20
4306;DHT22;2166;49.926;8.608;2023-04-05T09:02:16;26.40;25.50
4306;DHT22;2166;49.926;8.608;2023-04-05T09:04:45;26.90;25.90
4306;DHT22;2166;49.926;8.608;2023-04-05T09:07:14;27.00;25.50
4306;DHT22;2166;49.926;8.608;2023-04-05T09:09:47;27.20;25.00
4306;DHT22;2166;49.926;8.608;2023-04-05T09:12:16;26.60;25.20
4306;DHT22;2166;49.926;8.608;2023-04-05T09:14:47;26.30;26.10
4306;DHT22;2166;49.926;8.608;2023-04-05T09:17:17;26.40;26.40
4306;DHT22;2166;49.926;8.608;2023-04-05T09:19:45;26.80;25.70
4306;DHT22;2166;49.926;8.608;2023-04-05T09:22:15;26.50;25.60
4306;DHT22;2166;49.926;8.608;2023-04-05T09:24:45;26.40;25.10
4306;DHT22;2166;49.926;8.608;2023-04-05T09:27:19;27.20;24.40
4306;DHT22;2166;49.926;8.608;2023-04-05T09:29:54;27.80;24.20
4306;DHT22;2166;49.926;8.608;2023-04-05T09:32:24;27.10;25.10
4306;DHT22;2166;49.926;8.608;2023-04-05T09:34:53;27.30;24.30
4306;DHT22;2166;49.926;8.608;2023-04-05T09:37:30;27.60;23.50
4306;DHT22;2166;49.926;8.608;2023-04-05T09:40:00;28.50;24.00
4306;DHT22;2166;49.926;8.608;2023-04-05T09:42:31;29.20;23.80
4306;DHT22;2166;49.926;8.608;2023-04-05T09:45:01;29.70;23.60
4306;DHT22;2166;49.926;8.608;2023-04-05T09:47:38;30.30;23.40
4306;DHT22;2166;49.926;8.608;2023-04-05T09:50:16;31.00;22.50
4306;DHT22;2166;49.926;8.608;2023-04-05T09:52:46;30.30;22.10
4306;DHT22;2166;49.926;8.608;2023-04-05T09:55:24;30.00;21.90
4306;DHT22;2166;49.926;8.608;2023-04-05T09:57:53;29.40;21.80
4306;DHT22;2166;49.926;8.608;2023-04-05T10:00:22;29.80;22.60
4306;DHT22;2166;49.926;8.608;2023-04-05T10:02:53;30.60;22.10
4306;DHT22;2166;49.926;8.608;2023-04-05T10:05:23;30.30;23.10
4306;DHT22;2166;49.926;8.608;2023-04-05T10:07:53;30.10;22.60
4306;DHT22;2166;49.926;8.608;2023-04-05T10:10:24;30.60;22.30
4306;DHT22;2166;49.926;8.608;2023-04-05T10:12:52;30.80;21.60
4306;DHT22;2166;49.926;8.608;2023-04-05T10:15:20;31.30;21.20
4306;DHT22;2166;49.926;8.608;2023-04-05T10:17:55;31.60;21.00
4306;DHT22;2166;49.926;8.608;2023-04-05T10:20:26;31.90;21.10
4306;DHT22;2166;49.926;8.608;2023-04-05T10:23:06;31.50;21.50
4306;DHT22;2166;49.926;8.608;2023-04-05T10:25:40;30.80;21.50
4306;DHT22;2166;49.926;8.608;2023-04-05T10:28:11;30.20;22.20
4306;DHT22;2166;49.926;8.608;2023-04-05T10:30:45;31.10;21.90
4306;DHT22;2166;49.926;8.608;2023-04-05T10:33:19;31.00;21.50
4306;DHT22;2166;49.926;8.608;2023-04-05T10:35:59;30.70;21.80
4306;DHT22;2166;49.926;8.608;2023-04-05T10:38:40;30.50;22.20
4306;DHT22;2166;49.926;8.608;2023-04-05T10:41:11;30.90;20.60
4306;DHT22;2166;49.926;8.608;2023-04-05T10:43:40;30.40;20.60
4306;DHT22;2166;49.926;8.608;2023-04-05T10:46:09;30.30;21.20
4306;DHT22;2166;49.926;8.608;2023-04-05T10:48:43;30.70;21.80
4306;DHT22;2166;49.926;8.608;2023-04-05T10:51:12;30.60;20.60
4306;DHT22;2166;49.926;8.608;2023-04-05T10:53:41;30.40;22.20
4306;DHT22;2166;49.926;8.608;2023-04-05T10:56:13;30.50;20.40
4306;DHT22;2166;49.926;8.608;2023-04-05T10:58:41;30.10;21.30
4306;DHT22;2166;49.926;8.608;2023-04-05T11:01:11;30.10;21.40
4306;DHT22;2166;49.926;8.608;2023-04-05T11:03:48;29.30;21.60
4306;DHT22;2166;49.926;8.608;2023-04-05T11:06:17;30.10;21.80
4306;DHT22;2166;49.926;8.608;2023-04-05T11:08:46;31.00;20.40
4306;DHT22;2166;49.926;8.608;2023-04-05T11:11:15;31.40;20.60
4306;DHT22;2166;49.926;8.608;2023-04-05T11:13:48;31.70;20.40
4306;DHT22;2166;49.926;8.608;2023-04-05T11:16:16;31.70;21.20
4306;DHT22;2166;49.926;8.608;2023-04-05T11:18:45;31.50;20.40
4306;DHT22;2166;49.926;8.608;2023-04-05T11:21:22;31.70;20.30
4306;DHT22;2166;49.926;8.608;2023-04-05T11:24:00;31.50;20.80
4306;DHT22;2166;49.926;8.608;2023-04-05T11:26:32;31.60;21.20
4306;DHT22;2166;49.926;8.608;2023-04-05T11:29:01;31.60;21.20
4306;DHT22;2166;49.926;8.608;2023-04-05T11:31:29;31.60;21.40
4306;DHT22;2166;49.926;8.608;2023-04-05T11:33:59;32.40;20.80
4306;DHT22;2166;49.926;8.608;2023-04-05T11:36:38;31.90;19.30
4306;DHT22;2166;49.926;8.608;2023-04-05T11:39:26;30.30;19.90
4306;DHT22;2166;49.926;8.608;2023-04-05T11:41:57;28.60;21.40
4306;DHT22;2166;49.926;8.608;2023-04-05T11:44:26;28.80;22.00
4306;DHT22;2166;49.926;8.608;2023-04-05T11:46:54;29.50;21.00
4306;DHT22;2166;49.926;8.608;2023-04-05T11:49:23;29.70;20.80
4306;DHT22;2166;49.926;8.608;2023-04-05T11:51:54;29.20;21.40
4306;DHT22;2166;49.926;8.608;2023-04-05T11:54:29;29.10;21.60
4306;DHT22;2166;49.926;8.608;2023-04-05T11:57:01;30.30;21.40
4306;DHT22;2166;49.926;8.608;2023-04-05T11:59:30;31.00;21.30
4306;DHT22;2166;49.926;8.608;2023-04-05T12:02:00;31.00;20.80
4306;DHT22;2166;49.926;8.608;2023-04-05T12:04:28;30.60;19.90
4306;DHT22;2166;49.926;8.608;2023-04-05T12:07:12;28.60;20.60
4306;DHT22;2166;49.926;8.608;2023-04-05T12:09:56;27.10;21.40
4306;DHT22;2166;49.926;8.608;2023-04-05T12:12:27;26.00;21.90
4306;DHT22;2166;49.926;8.608;2023-04-05T12:14:58;25.50;23.80
4306;DHT22;2166;49.926;8.608;2023-04-05T12:17:40;26.10;22.00
4306;DHT22;2166;49.926;8.608;2023-04-05T12:20:09;26.50;21.70
4306;DHT22;2166;49.926;8.608;2023-04-05T12:22:40;27.30;20.90
4306;DHT22;2166;49.926;8.608;2023-04-05T12:25:09;26.70;20.80
4306;DHT22;2166;49.926;8.608;2023-04-05T12:27:53;26.50;21.10
4306;DHT22;2166;49.926;8.608;2023-04-05T12:30:22;26.50;21.90
4306;DHT22;2166;49.926;8.608;2023-04-05T12:32:51;26.70;22.00
4306;DHT22;2166;49.926;8.608;2023-04-05T12:35:21;26.80;21.10
4306;DHT22;2166;49.926;8.608;2023-04-05T12:37:53;26.80;20.70
4306;DHT22;2166;49.926;8.608;2023-04-05T12:40:24;26.30;22.40
4306;DHT22;2166;49.926;8.608;2023-04-05T12:43:00;27.10;22.10
4306;DHT22;2166;49.926;8.608;2023-04-05T12:45:31;27.20;20.70
4306;DHT22;2166;49.926;8.608;2023-04-05T12:48:07;26.70;20.90
4306;DHT22;2166;49.926;8.608;2023-04-05T12:50:35;26.30;21.40
4306;DHT22;2166;49.926;8.608;2023-04-05T12:53:14;26.70;21.30
4306;DHT22;2166;49.926;8.608;2023-04-05T12:55:49;27.40;21.70
4306;DHT22;2166;49.926;8.608;2023-04-05T12:58:18;28.40;20.60
4306;DHT22;2166;49.926;8.608;2023-04-05T13:00:47;28.50;21.30
4306;DHT22;2166;49.926;8.608;2023-04-05T13:03:15;29.00;20.30
4306;DHT22;2166;49.926;8.608;2023-04-05T13:05:47;29.40;20.30
4306;DHT22;2166;49.926;8.608;2023-04-05T13:08:17;30.10;19.60
4306;DHT22;2166;49.926;8.608;2023-04-05T13:10:46;30.00;20.30
4306;DHT22;2166;49.926;8.608;2023-04-05T13:13:16;29.40;19.40
4306;DHT22;2166;49.926;8.608;2023-04-05T13:15:46;29.00;21.20
4306;DHT22;2166;49.926;8.608;2023-04-05T13:18:17;28.00;20.10
4306;DHT22;2166;49.926;8.608;2023-04-05T13:20:46;27.70;20.40
4306;DHT22;2166;49.926;8.608;2023-04-05T13:23:14;27.10;20.20
4306;DHT22;2166;49.926;8.608;2023-04-05T13:25:44;26.10;20.80
4306;DHT22;2166;49.926;8.608;2023-04-05T13:28:12;25.80;22.10
4306;DHT22;2166;49.926;8.608;2023-04-05T13:30:43;25.70;23.10
4306;DHT22;2166;49.926;8.608;2023-04-05T13:33:12;26.60;22.10
4306;DHT22;2166;49.926;8.608;2023-04-05T13:35:41;27.40;20.50
4306;DHT22;2166;49.926;8.608;2023-04-05T13:38:15;27.20;20.20
4306;DHT22;2166;49.926;8.608;2023-04-05T13:40:45;27.80;20.90
4306;DHT22;2166;49.926;8.608;2023-04-05T13:43:13;27.80;20.20
4306;DHT22;2166;49.926;8.608;2023-04-05T13:45:44;26.80;21.70
4306;DHT22;2166;49.926;8.608;2023-04-05T13:48:12;26.00;21.60
4306;DHT22;2166;49.926;8.608;2023-04-05T13:50:40;25.40;21.80
4306;DHT22;2166;49.926;8.608;2023-04-05T13:53:09;25.20;21.10
4306;DHT22;2166;49.926;8.608;2023-04-05T13:55:38;24.40;21.50
4306;DHT22;2166;49.926;8.608;2023-04-05T13:58:08;24.00;22.00
4306;DHT22;2166;49.926;8.608;2023-04-05T14:00:37;24.50;23.50
4306;DHT22;2166;49.926;8.608;2023-04-05T14:03:06;25.20;23.30
4306;DHT22;2166;49.926;8.608;2023-04-05T14:05:34;25.40;22.70
4306;DHT22;2166;49.926;8.608;2023-04-05T14:08:03;25.20;22.70
4306;DHT22;2166;49.926;8.608;2023-04-05T14:10:32;25.70;22.20
4306;DHT22;2166;49.926;8.608;2023-04-05T14:13:00;26.30;22.90
4306;DHT22;2166;49.926;8.608;2023-04-05T14:15:30;26.70;21.60
4306;DHT22;2166;49.926;8.608;2023-04-05T14:17:59;27.00;22.40
4306;DHT22;2166;49.926;8.608;2023-04-05T14:20:31;26.50;22.30
4306;DHT22;2166;49.926;8.608;2023-04-05T14:22:59;25.80;22.60
4306;DHT22;2166;49.926;8.608;2023-04-05T14:25:28;26.30;22.00
4306;DHT22;2166;49.926;8.608;2023-04-05T14:27:56;26.50;22.10
4306;DHT22;2166;49.926;8.608;2023-04-05T14:30:25;26.80;22.80
4306;DHT22;2166;49.926;8.608;2023-04-05T14:32:55;27.10;21.30
4306;DHT22;2166;49.926;8.608;2023-04-05T14:35:23;27.60;21.80
4306;DHT22;2166;49.926;8.608;2023-04-05T14:37:52;27.80;21.10
4306;DHT22;2166;49.926;8.608;2023-04-05T14:40:20;27.30;21.40
4306;DHT22;2166;49.926;8.608;2023-04-05T14:42:49;26.60;21.30
4306;DHT22;2166;49.926;8.608;2023-04-05T14:45:17;26.30;22.00
4306;DHT22;2166;49.926;8.608;2023-04-05T14:47:45;26.40;22.20
4306;DHT22;2166;49.926;8.608;2023-04-05T14:50:15;26.50;23.00
4306;DHT22;2166;49.926;8.608;2023-04-05T14:52:43;26.70;22.50
4306;DHT22;2166;49.926;8.608;2023-04-05T14:55:12;27.00;21.70
4306;DHT22;2166;49.926;8.608;2023-04-05T14:57:41;26.70;21.20
4306;DHT22;2166;49.926;8.608;2023-04-05T15:00:09;26.30;22.40
4306;DHT22;2166;49.926;8.608;2023-04-05T15:02:38;26.50;22.50
4306;DHT22;2166;49.926;8.608;2023-04-05T15:05:07;25.70;21.70
4306;DHT22;2166;49.926;8.608;2023-04-05T15:07:37;25.00;22.60
4306;DHT22;2166;49.926;8.608;2023-04-05T15:10:06;24.70;22.80
4306;DHT22;2166;49.926;8.608;2023-04-05T15:12:34;23.80;24.30
4306;DHT22;2166;49.926;8.608;2023-04-05T15:15:03;23.30;24.50
4306;DHT22;2166;49.926;8.608;2023-04-05T15:17:32;22.70;23.90
4306;DHT22;2166;49.926;8.608;2023-04-05T15:20:00;21.60;24.30
4306;DHT22;2166;49.926;8.608;2023-04-05T15:22:29;21.20;24.80
4306;DHT22;2166;49.926;8.608;2023-04-05T15:24:59;21.10;26.10
4306;DHT22;2166;49.926;8.608;2023-04-05T15:27:28;21.10;25.30
4306;DHT22;2166;49.926;8.608;2023-04-05T15:29:56;20.90;25.10
4306;DHT22;2166;49.926;8.608;2023-04-05T15:32:25;20.90;25.60
4306;DHT22;2166;49.926;8.608;2023-04-05T15:34:53;21.20;25.60
4306;DHT22;2166;49.926;8.608;2023-04-05T15:37:22;21.40;23.80
4306;DHT22;2166;49.926;8.608;2023-04-05T15:39:51;21.30;23.10
4306;DHT22;2166;49.926;8.608;2023-04-05T15:42:21;21.20;24.10
4306;DHT22;2166;49.926;8.608;2023-04-05T15:44:49;21.10;24.20
4306;DHT22;2166;49.926;8.608;2023-04-05T15:47:18;20.90;23.30
4306;DHT22;2166;49.926;8.608;2023-04-05T15:49:47;20.10;24.90
4306;DHT22;2166;49.926;8.608;2023-04-05T15:52:17;19.70;25.10
4306;DHT22;2166;49.926;8.608;2023-04-05T15:54:45;19.90;25.40
4306;DHT22;2166;49.926;8.608;2023-04-05T15:57:14;20.10;24.50
4306;DHT22;2166;49.926;8.608;2023-04-05T15:59:43;20.30;25.10
4306;DHT22;2166;49.926;8.608;2023-04-05T16:02:12;20.30;25.60
4306;DHT22;2166;49.926;8.608;2023-04-05T16:04:41;20.40;25.20
4306;DHT22;2166;49.926;8.608;2023-04-05T16:07:09;20.40;24.40
4306;DHT22;2166;49.926;8.608;2023-04-05T16:09:38;20.50;24.60
4306;DHT22;2166;49.926;8.608;2023-04-05T16:12:07;20.70;25.10
4306;DHT22;2166;49.926;8.608;2023-04-05T16:14:35;20.60;26.40
4306;DHT22;2166;49.926;8.608;2023-04-05T16:17:05;20.60;25.60
4306;DHT22;2166;49.926;8.608;2023-04-05T16:19:33;20.40;24.80
4306;DHT22;2166;49.926;8.608;2023-04-05T16:22:03;20.30;24.40
4306;DHT22;2166;49.926;8.608;2023-04-05T16:24:31;20.40;25.00
4306;DHT22;2166;49.926;8.608;2023-04-05T16:27:02;20.30;25.10
4306;DHT22;2166;49.926;8.608;2023-04-05T16:29:30;20.40;25.70
4306;DHT22;2166;49.926;8.608;2023-04-05T16:31:59;20.30;26.30
4306;DHT22;2166;49.926;8.608;2023-04-05T16:34:29;20.00;25.50
4306;DHT22;2166;49.926;8.608;2023-04-05T16:36:57;19.60;26.80